Pagrindinis puslapis
METAR-TAF:

METAR-TAF

Oro uostai :

Rajahmundry, Indija

platuma: 17-06-37N, ilguma: 81-49-06E, Aukštis: 46 m

Dabartinis oras

Ataskaita buvo paskelbta 4 valandos ir 34 minutes, ne 16:30 UTC
Vėjas 3 kt iš Šiaurės Vakarų
Temperatūra 28°C
Drėgmė 84%
Slėgis 1005 hPa
Matomumas: 4000 m
Mažai debesys ne aukštis 2000 ft
Apsiniaukę ne aukštis 9000 ft
rūkana

METAR: VORY 221630Z 32003KT 4000 BR FEW020 OVC090 28/25 Q1005 NOSIG

Laikas: 02:34 (21:04 UTC)

Prognozė

Ataskaita buvo paskelbta 10 valandos ir 4 minutes, ne 11:00 UTC
Prognozė galioja nuo 22 metu 12 UTC su 22 metu 21 UTC
Vėjas 6 kt iš Vakarų/Šiaurės Vakarų
Matomumas: 3000 m
Mažai debesys ne aukštis 2000 ft
Su prošvaistėmis ne aukštis 9000 ft
rūkana, migla
Laikinai
nuo 22 metu 15 UTC su 22 metu 21 UTC
Vėjas 4 kt iš Šiaurės Rytų
Matomumas: 1500 m
Išsisklaidę debesys ne aukštis 2000 ft
Apsiniaukę ne aukštis 8000 ft
migla, rūkana

TAF: VORY 221100Z 2212/2221 29006KT 3000 BR HZ FEW020 BKN090 TEMPO 2215/2221 05004KT 1500 HZ BR SCT020 OVC080

Orai ataskaitas ir orų prognozės (METAR, TAF).

turimą stotys yra geltonos ir raudonos taškus žemėlapyje.

Perkelti pele per norėdami pamatyti stoties vardą.

Tada spustelėkite, norėdami matyti oro stebėjimo ir prognozės.

Norėdami pakeisti žemėlapį: spustelėkite ant žalios mygtukų su juodo kryžiaus žemyn,; žalią mygtuką su brūkšneliu, jei norite nutolinti; arba žalių rodyklių gretimoms žemėlapius.


METAR-TAF: